Time;durP1;ratioP1;P1;durP2;ratioP2;P2;SDS_P1;SDS_P2;PMS_P1;PMS_P2;Temp;Humidity;BMP_temperature;BMP_pressure;BME280_temperature;BME280_humidity;BME280_pressure;Samples;Min_cycle;Max_cycle;Signal;HPM_P1;HPM_P2
2021/09/18 00:00:41;;;;;;;3.75;3.05;;;13.40;99.90;;;;;;5056731;28;20055;-73
2021/09/18 00:03:06;;;;;;;8.57;3.50;;;13.40;99.90;;;;;;5074368;28;20028;-72
2021/09/18 00:05:32;;;;;;;7.57;2.83;;;13.30;99.90;;;;;;5074801;28;20043;-73
2021/09/18 00:07:57;;;;;;;6.35;3.25;;;13.30;99.90;;;;;;5074779;28;20097;-73
2021/09/18 00:10:23;;;;;;;4.82;3.17;;;13.40;99.90;;;;;;5074355;28;20392;-72
2021/09/18 00:12:49;;;;;;;5.63;3.25;;;13.40;99.90;;;;;;5074245;28;20044;-72
2021/09/18 00:15:14;;;;;;;3.80;3.38;;;13.40;99.90;;;;;;5073915;28;20047;-73
2021/09/18 00:17:40;;;;;;;7.80;3.70;;;13.30;99.90;;;;;;5074092;28;20047;-72
2021/09/18 00:20:07;;;;;;;4.53;3.38;;;13.30;99.90;;;;;;5073636;28;20480;-73
2021/09/18 00:22:32;;;;;;;5.18;3.35;;;13.20;99.90;;;;;;5072625;28;20040;-73
2021/09/18 00:24:58;;;;;;;4.22;2.97;;;13.20;99.90;;;;;;5056027;28;20055;-73
2021/09/18 00:27:23;;;;;;;5.47;3.15;;;13.20;99.90;;;;;;5074010;28;20400;-73
2021/09/18 00:29:49;;;;;;;5.20;3.33;;;13.10;99.90;;;;;;5073901;28;20036;-73
2021/09/18 00:32:15;;;;;;;4.45;3.22;;;13.00;99.90;;;;;;5074216;28;20045;-72
2021/09/18 00:34:40;;;;;;;4.97;3.65;;;13.10;99.90;;;;;;5074309;28;20071;-72
2021/09/18 00:37:06;;;;;;;3.45;3.00;;;13.10;99.90;;;;;;5072867;28;20553;-73
2021/09/18 00:39:32;;;;;;;4.35;3.38;;;13.20;99.90;;;;;;5073451;28;20040;-73
2021/09/18 00:41:57;;;;;;;7.30;4.10;;;13.10;99.90;;;;;;5073915;28;20090;-72
2021/09/18 00:44:27;;;;;;;5.38;3.45;;;13.20;99.90;;;;;;5073720;28;20040;-72
2021/09/18 00:46:53;;;;;;;3.80;2.95;;;13.10;99.90;;;;;;5073682;28;20036;-72
2021/09/18 00:49:19;;;;;;;7.22;3.78;;;13.20;99.90;;;;;;5073592;28;20483;-72
2021/09/18 00:51:45;;;;;;;4.63;3.35;;;13.20;99.90;;;;;;5073598;28;20029;-72
2021/09/18 00:54:13;;;;;;;4.38;3.28;;;13.30;99.90;;;;;;5073903;28;20041;-72
2021/09/18 00:56:40;;;;;;;6.18;3.90;;;13.30;99.90;;;;;;5073716;28;20052;-72
2021/09/18 00:59:06;;;;;;;6.00;3.20;;;13.30;99.90;;;;;;5073293;28;20499;-73
2021/09/18 01:01:32;;;;;;;5.18;3.50;;;13.20;99.90;;;;;;5073436;28;20559;-72
2021/09/18 01:03:59;;;;;;;6.00;3.45;;;13.20;99.90;;;;;;5072535;28;20082;-72
2021/09/18 01:06:26;;;;;;;7.13;4.35;;;13.20;99.90;;;;;;5073554;28;20044;-73
2021/09/18 01:08:54;;;;;;;6.57;3.88;;;13.20;99.90;;;;;;5073047;28;20045;-73
2021/09/18 01:11:19;;;;;;;6.13;3.50;;;13.30;99.90;;;;;;5073663;28;20078;-72
2021/09/18 01:13:45;;;;;;;4.68;3.83;;;13.20;99.90;;;;;;5073453;28;20036;-73
2021/09/18 01:16:10;;;;;;;4.57;3.42;;;13.30;99.90;;;;;;5072290;28;20044;-73
2021/09/18 01:18:36;;;;;;;4.70;3.72;;;13.20;99.90;;;;;;5073312;28;20040;-73
2021/09/18 01:21:02;;;;;;;4.05;3.38;;;13.20;99.90;;;;;;5073021;28;20181;-72
2021/09/18 01:23:28;;;;;;;4.68;3.55;;;13.10;99.90;;;;;;5073552;28;20051;-72
2021/09/18 01:25:54;;;;;;;3.92;3.60;;;13.10;99.90;;;;;;5072388;28;20043;-72
2021/09/18 01:28:22;;;;;;;4.88;3.78;;;13.20;99.90;;;;;;5072928;28;20119;-72
2021/09/18 01:30:48;;;;;;;5.05;3.50;;;13.10;99.90;;;;;;5072579;28;20492;-72
2021/09/18 01:33:14;;;;;;;5.68;3.55;;;13.20;99.90;;;;;;5073390;28;20036;-72
2021/09/18 01:35:40;;;;;;;5.50;3.33;;;13.10;99.90;;;;;;5073251;28;20452;-72
2021/09/18 01:38:05;;;;;;;4.40;3.13;;;13.10;99.90;;;;;;5073104;28;20045;-72
2021/09/18 01:40:37;;;;;;;5.43;3.15;;;13.00;99.90;;;;;;5072736;28;20080;-72
2021/09/18 01:43:04;;;;;;;4.53;4.00;;;13.00;99.90;;;;;;5072991;28;20037;-72
2021/09/18 01:45:31;;;;;;;4.55;3.85;;;13.00;99.90;;;;;;5073037;28;20036;-72
2021/09/18 01:47:59;;;;;;;3.90;3.58;;;13.00;99.90;;;;;;5073366;28;20044;-72
2021/09/18 01:50:28;;;;;;;3.88;3.38;;;13.00;99.90;;;;;;5071786;28;20060;-72
2021/09/18 01:52:57;;;;;;;6.03;3.75;;;13.00;99.90;;;;;;5072094;28;20079;-72
2021/09/18 01:55:23;;;;;;;5.40;3.72;;;13.00;99.90;;;;;;5071883;28;20365;-72
2021/09/18 01:57:51;;;;;;;5.78;3.63;;;12.90;99.90;;;;;;5071473;28;20061;-72
2021/09/18 02:00:17;;;;;;;4.65;3.60;;;12.90;99.90;;;;;;5071333;28;20396;-73
2021/09/18 02:02:44;;;;;;;4.80;3.45;;;13.00;99.90;;;;;;5072852;28;20499;-72
2021/09/18 02:05:10;;;;;;;7.03;4.78;;;13.00;99.90;;;;;;5072786;28;20456;-72
2021/09/18 02:07:36;;;;;;;5.75;3.72;;;13.00;99.90;;;;;;5071782;28;20369;-72
2021/09/18 02:10:05;;;;;;;4.20;3.13;;;13.00;99.90;;;;;;5072786;28;20040;-73
2021/09/18 02:12:30;;;;;;;4.63;3.83;;;13.00;99.90;;;;;;5072825;28;20364;-73
2021/09/18 02:14:56;;;;;;;5.28;3.60;;;13.00;99.90;;;;;;5072980;28;20037;-73
2021/09/18 02:17:21;;;;;;;6.63;3.72;;;12.90;99.90;;;;;;5072631;28;20041;-73
2021/09/18 02:19:47;;;;;;;8.73;4.07;;;12.90;99.90;;;;;;5072287;28;20036;-73
2021/09/18 02:22:13;;;;;;;6.15;4.30;;;12.90;99.90;;;;;;5071762;28;20487;-73
2021/09/18 02:24:38;;;;;;;6.35;4.55;;;12.90;99.90;;;;;;5072660;28;20048;-72
2021/09/18 02:27:04;;;;;;;5.68;4.43;;;12.90;99.90;;;;;;5071553;28;20044;-72
2021/09/18 02:29:29;;;;;;;7.70;4.55;;;12.90;99.90;;;;;;5072347;28;20047;-72
2021/09/18 02:31:55;;;;;;;6.72;4.35;;;12.90;99.90;;;;;;5071488;28;20036;-72
2021/09/18 02:34:20;;;;;;;5.15;4.60;;;13.00;99.90;;;;;;5072172;28;20082;-72
2021/09/18 02:36:46;;;;;;;6.60;4.50;;;13.00;99.90;;;;;;5072936;28;20051;-72
2021/09/18 02:39:11;;;;;;;6.72;4.18;;;13.00;99.90;;;;;;5075774;28;20043;-73
2021/09/18 02:41:37;;;;;;;7.97;4.57;;;13.00;99.90;;;;;;5075016;28;20044;-73
2021/09/18 02:44:03;;;;;;;6.97;4.55;;;13.10;99.90;;;;;;5076029;28;20041;-73
2021/09/18 02:46:29;;;;;;;6.22;4.85;;;13.10;99.90;;;;;;5076054;28;20036;-73
2021/09/18 02:48:55;;;;;;;6.20;5.20;;;13.00;99.90;;;;;;5075704;28;20082;-73
2021/09/18 02:51:21;;;;;;;5.53;4.90;;;13.00;99.90;;;;;;5074696;28;20044;-73
2021/09/18 02:53:46;;;;;;;6.57;4.28;;;13.00;99.90;;;;;;5075964;28;20047;-73
2021/09/18 02:56:12;;;;;;;7.70;4.78;;;13.00;99.90;;;;;;5075840;28;20041;-73
2021/09/18 02:58:37;;;;;;;8.45;4.68;;;13.00;99.90;;;;;;5075374;28;20052;-73
2021/09/18 03:01:03;;;;;;;6.18;4.80;;;13.00;99.90;;;;;;5074420;28;20356;-73
2021/09/18 03:03:28;;;;;;;7.78;4.93;;;12.90;99.90;;;;;;5075918;28;20036;-73
2021/09/18 03:05:54;;;;;;;7.53;4.45;;;12.90;99.90;;;;;;5074493;28;20037;-73
2021/09/18 03:08:20;;;;;;;9.43;6.00;;;12.90;99.90;;;;;;5075218;28;20049;-72
2021/09/18 03:10:46;;;;;;;10.98;5.15;;;12.80;99.90;;;;;;5074322;28;20082;-72
2021/09/18 03:13:11;;;;;;;6.15;4.53;;;12.80;99.90;;;;;;5075431;28;20040;-72
2021/09/18 03:15:37;;;;;;;5.55;4.72;;;12.90;99.90;;;;;;5076012;28;20120;-72
2021/09/18 03:18:03;;;;;;;5.15;4.65;;;12.90;99.90;;;;;;5075486;28;20083;-72
2021/09/18 03:20:28;;;;;;;6.65;4.88;;;12.90;99.90;;;;;;5075065;28;20037;-72
2021/09/18 03:22:54;;;;;;;7.35;4.95;;;12.90;99.90;;;;;;5075485;28;20079;-72
2021/09/18 03:25:20;;;;;;;7.63;5.78;;;12.90;99.90;;;;;;5074302;28;20338;-72
2021/09/18 03:27:45;;;;;;;8.25;6.32;;;12.80;99.90;;;;;;5075670;28;20037;-72
2021/09/18 03:30:11;;;;;;;8.40;6.15;;;12.80;99.90;;;;;;5075451;28;20045;-73
2021/09/18 03:32:37;;;;;;;7.68;6.65;;;12.80;99.90;;;;;;5074015;28;20041;-73
2021/09/18 03:35:03;;;;;;;6.45;5.50;;;12.90;99.90;;;;;;5075210;28;20105;-73
2021/09/18 03:37:29;;;;;;;8.80;6.38;;;12.90;99.90;;;;;;5075066;28;20067;-73
2021/09/18 03:39:55;;;;;;;7.65;5.70;;;12.80;99.90;;;;;;5073198;28;20056;-73
2021/09/18 03:42:21;;;;;;;7.85;7.05;;;12.80;99.90;;;;;;5074704;28;20044;-73
2021/09/18 03:44:48;;;;;;;8.00;6.18;;;12.70;99.90;;;;;;5073728;28;20044;-73
2021/09/18 03:47:14;;;;;;;6.78;6.05;;;12.70;99.90;;;;;;5074863;28;20395;-72
2021/09/18 03:49:40;;;;;;;8.02;6.93;;;12.80;99.90;;;;;;5073791;28;20160;-72
2021/09/18 03:52:05;;;;;;;7.22;5.63;;;12.70;99.90;;;;;;5073753;28;20040;-72
2021/09/18 03:54:31;;;;;;;9.55;6.80;;;12.80;99.90;;;;;;5075131;28;20173;-72
2021/09/18 03:56:57;;;;;;;10.48;6.80;;;12.80;99.90;;;;;;5074690;28;20082;-72
2021/09/18 03:59:22;;;;;;;10.25;6.72;;;12.80;99.90;;;;;;5074326;28;20049;-72
2021/09/18 04:01:48;;;;;;;8.07;6.10;;;12.80;99.90;;;;;;5074446;28;20040;-72
2021/09/18 04:04:13;;;;;;;8.13;6.03;;;12.80;99.90;;;;;;5074521;28;20075;-73
2021/09/18 04:06:39;;;;;;;7.30;6.32;;;12.80;99.90;;;;;;5074471;28;20399;-73
2021/09/18 04:09:04;;;;;;;7.60;6.00;;;12.80;99.90;;;;;;5072916;28;20443;-73
2021/09/18 04:11:30;;;;;;;9.45;6.60;;;12.80;99.90;;;;;;5074407;28;20460;-73
2021/09/18 04:13:56;;;;;;;6.50;5.72;;;12.80;99.90;;;;;;5073135;28;20077;-73
2021/09/18 04:16:21;;;;;;;7.38;6.63;;;12.80;99.90;;;;;;5074407;28;20040;-73
2021/09/18 04:18:48;;;;;;;9.20;6.10;;;12.80;99.90;;;;;;5074143;28;20093;-73
2021/09/18 04:21:14;;;;;;;6.43;5.80;;;12.80;99.90;;;;;;5074204;28;20043;-72
2021/09/18 04:23:39;;;;;;;8.30;5.80;;;12.80;99.90;;;;;;5074296;28;20025;-73
2021/09/18 04:26:05;;;;;;;8.80;5.93;;;12.80;99.90;;;;;;5074218;28;20143;-72
2021/09/18 04:28:31;;;;;;;7.05;5.38;;;12.80;99.90;;;;;;5072569;28;20435;-73
2021/09/18 04:30:56;;;;;;;6.85;6.00;;;12.80;99.90;;;;;;5074383;28;20041;-73
2021/09/18 04:33:22;;;;;;;6.70;6.00;;;12.80;99.90;;;;;;5072976;28;20045;-73
2021/09/18 04:35:48;;;;;;;6.53;5.18;;;12.80;99.90;;;;;;5074434;28;20056;-73
2021/09/18 04:38:13;;;;;;;7.78;5.80;;;12.70;99.90;;;;;;5073849;28;20527;-73
2021/09/18 04:40:39;;;;;;;7.22;5.95;;;12.70;99.90;;;;;;5073501;28;20040;-73
2021/09/18 04:43:04;;;;;;;7.15;6.45;;;12.70;99.90;;;;;;5073229;28;20041;-73
2021/09/18 04:45:30;;;;;;;6.70;5.72;;;12.70;99.90;;;;;;5074530;28;20082;-73
2021/09/18 04:47:56;;;;;;;8.32;5.80;;;12.60;99.90;;;;;;5072560;28;20119;-73
2021/09/18 04:50:21;;;;;;;8.00;6.50;;;12.60;99.90;;;;;;5071831;28;20499;-73
2021/09/18 04:52:47;;;;;;;6.78;5.95;;;12.60;99.90;;;;;;5073766;28;20036;-73
2021/09/18 04:55:12;;;;;;;7.22;6.07;;;12.60;99.90;;;;;;5073567;28;20499;-73
2021/09/18 04:57:38;;;;;;;11.23;7.00;;;12.60;99.90;;;;;;5072155;28;20044;-73
2021/09/18 05:00:05;;;;;;;7.50;5.97;;;12.50;99.90;;;;;;5071570;28;20456;-73
2021/09/18 05:02:30;;;;;;;6.50;5.43;;;12.40;99.90;;;;;;5073054;28;20445;-73
2021/09/18 05:04:56;;;;;;;7.50;5.28;;;12.40;99.90;;;;;;5073578;28;20071;-73
2021/09/18 05:07:22;;;;;;;7.20;5.85;;;12.40;99.90;;;;;;5073900;28;20483;-73
2021/09/18 05:09:48;;;;;;;8.27;6.40;;;12.40;99.90;;;;;;5073743;28;20098;-73
2021/09/18 05:12:13;;;;;;;6.63;5.93;;;12.40;99.90;;;;;;5072374;28;20480;-73
2021/09/18 05:14:39;;;;;;;8.73;6.38;;;12.40;99.90;;;;;;5072261;28;20127;-73
2021/09/18 05:17:04;;;;;;;8.70;6.70;;;12.50;99.90;;;;;;5073315;28;20101;-72
2021/09/18 05:19:30;;;;;;;9.38;5.78;;;12.40;99.90;;;;;;5073304;28;20044;-73
2021/09/18 05:21:56;;;;;;;8.15;6.30;;;12.40;99.90;;;;;;5073374;28;20071;-73
2021/09/18 05:24:21;;;;;;;7.95;5.95;;;12.40;99.90;;;;;;5073578;28;20105;-72
2021/09/18 05:26:47;;;;;;;7.57;5.85;;;12.40;99.90;;;;;;5073579;28;20115;-73
2021/09/18 05:29:13;;;;;;;6.15;5.28;;;12.40;99.90;;;;;;5072932;28;20044;-73
2021/09/18 05:31:38;;;;;;;6.97;5.90;;;12.40;99.90;;;;;;5073411;28;20044;-72
2021/09/18 05:34:04;;;;;;;7.15;6.18;;;12.40;99.90;;;;;;5073267;28;20032;-73
2021/09/18 05:36:29;;;;;;;8.55;6.13;;;12.50;99.90;;;;;;5073302;28;20433;-73
2021/09/18 05:38:55;;;;;;;7.85;6.07;;;12.50;99.90;;;;;;5054812;28;20048;-73
2021/09/18 05:41:20;;;;;;;7.80;6.10;;;12.50;99.90;;;;;;5072196;28;20476;-73
2021/09/18 05:43:46;;;;;;;8.57;6.05;;;12.50;99.90;;;;;;5073500;28;20039;-72
2021/09/18 05:46:12;;;;;;;6.93;5.68;;;12.50;99.90;;;;;;5073234;28;20033;-73
2021/09/18 05:48:37;;;;;;;9.48;6.43;;;12.50;99.90;;;;;;5072595;28;20041;-73
2021/09/18 05:51:03;;;;;;;6.70;6.00;;;12.50;99.90;;;;;;5071808;28;20033;-73
2021/09/18 05:53:28;;;;;;;7.70;6.97;;;12.50;99.90;;;;;;5071641;28;20484;-73
2021/09/18 05:55:54;;;;;;;7.60;5.75;;;12.50;99.90;;;;;;5072059;28;20067;-73
2021/09/18 05:58:19;;;;;;;8.27;6.47;;;12.50;99.90;;;;;;5072299;28;20119;-73
2021/09/18 06:00:45;;;;;;;10.52;6.70;;;12.60;99.90;;;;;;5073107;28;20139;-73
2021/09/18 06:03:10;;;;;;;6.55;5.57;;;12.60;99.90;;;;;;5071587;28;20043;-73
2021/09/18 06:05:36;;;;;;;7.80;5.85;;;12.60;99.90;;;;;;5071933;28;20037;-73
2021/09/18 06:08:01;;;;;;;7.57;6.18;;;12.60;99.90;;;;;;5072986;28;20044;-73
2021/09/18 06:10:27;;;;;;;7.90;6.45;;;12.70;99.90;;;;;;5072959;28;20113;-73
2021/09/18 06:12:53;;;;;;;8.00;6.55;;;12.70;99.90;;;;;;5075871;28;20040;-71
2021/09/18 06:15:18;;;;;;;10.10;7.43;;;12.70;99.90;;;;;;5075748;28;20046;-71
2021/09/18 06:17:44;;;;;;;8.65;6.90;;;12.70;99.90;;;;;;5075328;28;20480;-72
2021/09/18 06:20:10;;;;;;;13.25;7.38;;;12.80;99.90;;;;;;5076128;28;20032;-72
2021/09/18 06:22:36;;;;;;;8.18;6.55;;;12.80;99.90;;;;;;5075565;28;20041;-72
2021/09/18 06:25:02;;;;;;;9.38;8.02;;;12.90;99.90;;;;;;5076695;28;20032;-72
2021/09/18 06:27:27;;;;;;;8.27;6.75;;;12.90;99.90;;;;;;5076460;28;20041;-72
2021/09/18 06:29:53;;;;;;;8.32;7.18;;;12.80;99.90;;;;;;5074966;28;20128;-72
2021/09/18 06:32:18;;;;;;;9.93;7.30;;;12.90;99.90;;;;;;5076586;28;20048;-72
2021/09/18 06:34:44;;;;;;;8.85;7.63;;;13.00;99.90;;;;;;5076364;28;20047;-72
2021/09/18 06:37:09;;;;;;;8.38;7.07;;;13.10;99.90;;;;;;5076526;28;20036;-71
2021/09/18 06:39:36;;;;;;;8.30;6.68;;;13.20;99.90;;;;;;5075962;28;20040;-72
2021/09/18 06:42:02;;;;;;;9.32;6.97;;;13.20;99.90;;;;;;5076202;28;20043;-71
2021/09/18 06:44:27;;;;;;;8.65;6.20;;;13.30;99.90;;;;;;5076116;28;20041;-72
2021/09/18 06:46:53;;;;;;;9.30;6.55;;;13.40;99.90;;;;;;5076387;28;20036;-71
2021/09/18 06:49:18;;;;;;;9.32;6.40;;;13.40;99.90;;;;;;5076000;28;20068;-72
2021/09/18 06:51:44;;;;;;;9.32;6.07;;;13.50;99.90;;;;;;5075973;28;20528;-72
2021/09/18 06:54:10;;;;;;;8.25;6.20;;;13.60;99.90;;;;;;5074779;28;20067;-72
2021/09/18 06:56:35;;;;;;;12.52;5.30;;;13.60;99.90;;;;;;5075853;28;20041;-71
2021/09/18 06:59:01;;;;;;;7.55;5.20;;;13.70;99.90;;;;;;5075369;28;20055;-72
2021/09/18 07:01:27;;;;;;;7.97;4.82;;;13.70;99.90;;;;;;5076099;28;20460;-72
2021/09/18 07:03:56;;;;;;;7.25;4.43;;;13.70;99.90;;;;;;5074513;28;20040;-71
2021/09/18 07:06:21;;;;;;;6.45;4.43;;;13.80;99.90;;;;;;5075905;28;20563;-71
2021/09/18 07:08:47;;;;;;;7.40;4.75;;;13.80;99.90;;;;;;5075644;28;20079;-71
2021/09/18 07:11:13;;;;;;;7.82;5.40;;;13.80;99.90;;;;;;5074485;28;20515;-71
2021/09/18 07:13:38;;;;;;;9.43;4.18;;;13.90;99.90;;;;;;5075741;28;20044;-71
2021/09/18 07:16:04;;;;;;;5.68;4.30;;;13.90;99.90;;;;;;5075774;28;20036;-71
2021/09/18 07:18:32;;;;;;;4.80;4.30;;;13.90;99.90;;;;;;5074017;28;20040;-72
2021/09/18 07:20:57;;;;;;;9.60;4.40;;;14.00;99.90;;;;;;5075451;28;20090;-71
2021/09/18 07:23:24;;;;;;;5.45;3.80;;;14.10;99.90;;;;;;5073977;28;20041;-71
2021/09/18 07:25:50;;;;;;;7.13;4.50;;;14.10;99.90;;;;;;5074292;28;20040;-70
2021/09/18 07:28:15;;;;;;;7.90;4.00;;;14.20;99.90;;;;;;5075732;28;20047;-72
2021/09/18 07:30:41;;;;;;;7.22;4.70;;;14.30;99.90;;;;;;5073808;28;20040;-72
2021/09/18 07:33:06;;;;;;;5.85;4.68;;;14.30;99.90;;;;;;5074193;28;20052;-72
2021/09/18 07:35:32;;;;;;;7.78;3.97;;;14.30;99.90;;;;;;5075607;28;20491;-72
2021/09/18 07:38:03;;;;;;;8.18;4.75;;;14.40;99.90;;;;;;5075622;28;20055;-72
2021/09/18 07:40:29;;;;;;;7.05;4.50;;;14.50;99.90;;;;;;5075254;28;20488;-72
2021/09/18 07:42:54;;;;;;;4.40;3.75;;;14.60;99.90;;;;;;5073897;28;20111;-72
2021/09/18 07:45:20;;;;;;;9.98;3.95;;;14.70;99.90;;;;;;5074102;28;20443;-72
2021/09/18 07:47:45;;;;;;;7.25;4.35;;;14.80;99.90;;;;;;5073730;28;20174;-72
2021/09/18 07:50:11;;;;;;;6.78;3.70;;;14.80;99.90;;;;;;5074674;28;20374;-72
2021/09/18 07:52:37;;;;;;;6.38;3.75;;;14.80;99.90;;;;;;5057039;28;20037;-72
2021/09/18 07:55:03;;;;;;;7.85;4.30;;;14.90;99.90;;;;;;5075045;28;20089;-72
2021/09/18 07:57:29;;;;;;;6.57;3.92;;;14.90;99.90;;;;;;5074878;28;20049;-72
2021/09/18 07:59:55;;;;;;;4.25;3.70;;;14.90;99.90;;;;;;5074703;28;20457;-72
2021/09/18 08:02:21;;;;;;;3.78;3.30;;;15.00;99.90;;;;;;5075206;28;20036;-72
2021/09/18 08:04:46;;;;;;;4.88;3.53;;;15.10;99.90;;;;;;5073771;28;20050;-72
2021/09/18 08:07:12;;;;;;;4.03;3.28;;;15.10;99.90;;;;;;5075353;28;20078;-72
2021/09/18 08:09:38;;;;;;;4.55;3.45;;;15.20;99.90;;;;;;5074585;28;20052;-72
2021/09/18 08:12:03;;;;;;;3.95;3.50;;;15.20;99.90;;;;;;5075182;28;20048;-72
2021/09/18 08:14:29;;;;;;;5.78;3.10;;;15.30;99.90;;;;;;5074585;28;20115;-72
2021/09/18 08:16:55;;;;;;;5.60;2.20;;;15.40;99.90;;;;;;5074778;28;20434;-72
2021/09/18 08:19:21;;;;;;;6.45;2.22;;;15.40;99.90;;;;;;5073053;28;20093;-72
2021/09/18 08:21:49;;;;;;;3.63;2.55;;;15.40;99.90;;;;;;5074781;28;20032;-72
2021/09/18 08:24:17;;;;;;;3.80;2.45;;;15.50;99.90;;;;;;5074364;28;20111;-72
2021/09/18 08:26:42;;;;;;;8.20;2.08;;;15.50;99.90;;;;;;5074533;28;20154;-72
2021/09/18 08:29:08;;;;;;;3.83;2.38;;;15.60;99.90;;;;;;5074328;28;20044;-72
2021/09/18 08:31:33;;;;;;;3.72;2.08;;;15.60;99.90;;;;;;5072953;28;20041;-72
2021/09/18 08:33:59;;;;;;;5.18;1.98;;;15.70;99.90;;;;;;5073115;28;20044;-72
2021/09/18 08:36:24;;;;;;;3.92;2.17;;;15.80;99.90;;;;;;5074094;28;20044;-72
2021/09/18 08:38:50;;;;;;;3.03;1.38;;;15.90;99.90;;;;;;5072873;28;20131;-72
2021/09/18 08:41:16;;;;;;;2.80;1.33;;;15.90;99.90;;;;;;5074124;28;20571;-72
2021/09/18 08:43:43;;;;;;;2.40;1.33;;;16.00;99.90;;;;;;5073985;28;20122;-72
2021/09/18 08:46:09;;;;;;;2.95;0.90;;;16.00;99.90;;;;;;5073709;28;20059;-72
2021/09/18 08:48:39;;;;;;;3.30;1.73;;;16.00;99.90;;;;;;5073985;28;20477;-72
2021/09/18 08:51:05;;;;;;;4.38;1.38;;;16.20;99.90;;;;;;5073827;28;20040;-72
2021/09/18 08:53:30;;;;;;;6.90;1.48;;;16.50;99.90;;;;;;5073998;28;20047;-72
2021/09/18 08:55:57;;;;;;;2.03;1.10;;;16.70;99.90;;;;;;5072741;28;20128;-72
2021/09/18 08:58:24;;;;;;;3.72;1.30;;;16.90;99.90;;;;;;5073591;28;20411;-72
2021/09/18 09:00:53;;;;;;;4.38;1.40;;;17.00;99.90;;;;;;5073572;28;20040;-72
2021/09/18 09:03:24;;;;;;;2.75;1.15;;;17.10;99.90;;;;;;5073587;28;20506;-72
2021/09/18 09:05:56;;;;;;;4.22;1.05;;;17.10;99.90;;;;;;5073681;28;20098;-69
2021/09/18 09:08:21;;;;;;;2.67;0.98;;;17.10;99.90;;;;;;5073337;28;20052;-68
2021/09/18 09:10:48;;;;;;;2.70;1.20;;;17.40;99.90;;;;;;5073272;28;20381;-69
2021/09/18 09:13:17;;;;;;;4.90;1.40;;;17.60;99.90;;;;;;5073690;28;20071;-69
2021/09/18 09:15:44;;;;;;;5.47;1.20;;;17.60;99.90;;;;;;5072175;28;20044;-69
2021/09/18 09:18:27;;;;;;;4.97;1.45;;;17.70;99.90;;;;;;5072427;28;20044;-68
2021/09/18 09:21:13;;;;;;;4.15;1.27;;;17.90;99.90;;;;;;5072530;28;20036;-68
2021/09/18 09:23:41;;;;;;;3.58;1.08;;;18.00;99.90;;;;;;5073605;28;20097;-69
2021/09/18 09:26:07;;;;;;;4.03;1.23;;;18.20;99.90;;;;;;5073365;28;20033;-68
2021/09/18 09:28:36;;;;;;;1.67;0.90;;;18.30;99.90;;;;;;5071883;28;20093;-69
2021/09/18 09:31:16;;;;;;;3.10;1.00;;;18.30;99.90;;;;;;5072034;28;20052;-69
2021/09/18 09:34:02;;;;;;;3.83;1.33;;;18.40;99.90;;;;;;5072006;28;20408;-69
2021/09/18 09:36:39;;;;;;;6.57;1.50;;;18.30;99.90;;;;;;5055498;28;20045;-69
2021/09/18 09:39:06;;;;;;;3.95;1.35;;;18.30;99.90;;;;;;5071491;28;20404;-69
2021/09/18 09:41:41;;;;;;;2.38;0.95;;;18.40;99.90;;;;;;5073278;28;20537;-69
2021/09/18 09:44:13;;;;;;;5.00;1.50;;;18.40;99.90;;;;;;5072107;28;20045;-69
2021/09/18 09:46:40;;;;;;;2.03;0.93;;;18.50;99.90;;;;;;5075194;28;20048;-68
2021/09/18 09:49:10;;;;;;;2.35;1.10;;;18.50;99.90;;;;;;5079565;28;20036;-69
2021/09/18 09:51:36;;;;;;;3.45;0.82;;;18.50;99.90;;;;;;5078536;28;20161;-69
2021/09/18 09:54:19;;;;;;;4.10;1.10;;;18.40;99.90;;;;;;5079969;28;20107;-68
2021/09/18 09:56:45;;;;;;;1.20;0.90;;;18.50;99.90;;;;;;5079753;28;20044;-68
2021/09/18 09:59:11;;;;;;;2.70;1.10;;;18.50;99.90;;;;;;5079614;28;20472;-68
2021/09/18 10:01:36;;;;;;;2.85;1.30;;;18.60;99.90;;;;;;5078347;28;20098;-69
2021/09/18 10:04:02;;;;;;;3.78;1.38;;;18.70;99.90;;;;;;5078348;28;20506;-68
2021/09/18 10:06:29;;;;;;;4.10;1.00;;;18.80;99.90;;;;;;5077851;28;20101;-68
2021/09/18 10:08:56;;;;;;;2.22;0.93;;;18.90;99.90;;;;;;5078058;28;20052;-68
2021/09/18 10:11:24;;;;;;;1.95;1.20;;;19.00;99.90;;;;;;5079672;28;20040;-69
2021/09/18 10:13:52;;;;;;;2.13;1.40;;;19.00;99.90;;;;;;5079705;28;20126;-69
2021/09/18 10:16:18;;;;;;;6.22;1.50;;;19.00;99.90;;;;;;5079509;28;20424;-69
2021/09/18 10:18:44;;;;;;;3.15;1.20;;;19.00;99.90;;;;;;5079438;28;20055;-68
2021/09/18 10:23:56;;;;;;;5.30;1.08;;;18.90;99.90;;;;;;5078518;28;20488;-69
2021/09/18 10:26:22;;;;;;;3.92;1.33;;;18.90;99.90;;;;;;5079586;28;20373;-69
2021/09/18 10:28:47;;;;;;;4.13;1.88;;;18.90;99.90;;;;;;5079300;28;20056;-69
2021/09/18 10:31:16;;;;;;;4.30;2.28;;;18.90;99.90;;;;;;5079322;28;20032;-69
2021/09/18 10:33:45;;;;;;;3.28;1.55;;;19.00;99.90;;;;;;5078405;28;20048;-69
2021/09/18 10:36:29;;;;;;;4.20;0.95;;;18.90;99.90;;;;;;5079565;28;20475;-69
2021/09/18 10:39:19;;;;;;;1.05;0.63;;;19.00;99.90;;;;;;5078800;28;20047;-69
2021/09/18 10:41:46;;;;;;;1.23;0.70;;;19.10;98.90;;;;;;5078039;28;20066;-69
2021/09/18 10:44:13;;;;;;;1.42;0.60;;;18.90;98.60;;;;;;5080251;28;20047;-68
2021/09/18 10:46:49;;;;;;;4.10;1.00;;;19.00;99.80;;;;;;5079396;28;20043;-68
2021/09/18 10:49:43;;;;;;;3.78;1.10;;;19.10;99.90;;;;;;5079077;28;20044;-68
2021/09/18 10:52:20;;;;;;;3.67;1.10;;;19.10;98.80;;;;;;5079145;28;20121;-68
2021/09/18 10:55:01;;;;;;;3.20;1.70;;;19.10;99.00;;;;;;5079395;28;20504;-68
2021/09/18 10:57:51;;;;;;;2.22;1.20;;;19.00;98.90;;;;;;5077905;28;20129;-68
2021/09/18 11:00:22;;;;;;;2.95;1.10;;;19.00;99.30;;;;;;5075822;28;20047;-68
2021/09/18 11:02:48;;;;;;;5.18;1.30;;;19.10;99.30;;;;;;5074585;28;20170;-68
2021/09/18 11:05:25;;;;;;;1.50;0.90;;;19.00;99.60;;;;;;5074651;28;20124;-68
2021/09/18 11:07:53;;;;;;;3.83;0.90;;;18.90;99.90;;;;;;5057996;28;20052;-68
2021/09/18 11:10:19;;;;;;;3.45;1.30;;;18.90;99.90;;;;;;5075500;28;20048;-68
2021/09/18 11:13:06;;;;;;;4.38;1.48;;;18.90;99.80;;;;;;5074427;28;20040;-69
2021/09/18 11:15:38;;;;;;;1.67;0.90;;;19.00;98.40;;;;;;5074465;28;20105;-69
2021/09/18 11:18:30;;;;;;;3.00;1.27;;;19.00;98.60;;;;;;5075580;28;20079;-69
2021/09/18 11:20:59;;;;;;;4.18;1.33;;;19.10;98.40;;;;;;5074901;28;20488;-73
2021/09/18 11:23:43;;;;;;;2.78;1.08;;;19.20;98.80;;;;;;5073834;28;20048;-74
2021/09/18 11:26:38;;;;;;;1.75;1.00;;;19.20;98.50;;;;;;5074321;28;20048;-73
2021/09/18 11:29:18;;;;;;;3.00;1.52;;;19.30;97.90;;;;;;5075223;28;20045;-74
2021/09/18 11:32:02;;;;;;;3.92;1.27;;;19.20;99.90;;;;;;5075599;28;20032;-74
2021/09/18 11:34:30;;;;;;;2.05;1.27;;;19.10;99.90;;;;;;5075608;28;20048;-73
2021/09/18 11:36:58;;;;;;;2.08;1.10;;;19.00;99.90;;;;;;5075435;28;20044;-74
2021/09/18 11:39:40;;;;;;;4.10;0.90;;;19.10;97.90;;;;;;5074989;28;20036;-73
2021/09/18 11:42:25;;;;;;;1.53;0.80;;;19.10;95.20;;;;;;5075269;28;20479;-74
2021/09/18 11:45:00;;;;;;;1.40;0.82;;;19.10;94.80;;;;;;5074715;28;20283;-73
2021/09/18 11:47:34;;;;;;;4.18;0.82;;;19.10;95.10;;;;;;5073886;28;20102;-73
2021/09/18 11:50:01;;;;;;;1.60;0.77;;;19.10;96.00;;;;;;5073597;28;20106;-74
2021/09/18 11:52:45;;;;;;;2.05;0.60;;;19.20;96.00;;;;;;5075065;28;20106;-74
2021/09/18 11:55:29;;;;;;;1.10;0.88;;;19.10;95.50;;;;;;5075642;28;20460;-73
2021/09/18 11:58:10;;;;;;;1.50;0.80;;;19.10;96.30;;;;;;5075192;28;20443;-74
2021/09/18 12:00:38;;;;;;;1.63;0.70;;;19.20;95.80;;;;;;5073333;28;20036;-74
2021/09/18 12:03:05;;;;;;;2.13;0.70;;;19.20;95.80;;;;;;5073388;28;20127;-72
2021/09/18 12:05:30;;;;;;;1.60;1.10;;;19.30;97.40;;;;;;5074725;28;20044;-71
2021/09/18 12:07:56;;;;;;;2.88;1.17;;;19.60;95.50;;;;;;5074951;28;20040;-71
2021/09/18 12:10:23;;;;;;;2.97;1.15;;;19.80;94.00;;;;;;5073767;28;20041;-71
2021/09/18 12:12:55;;;;;;;1.90;1.25;;;19.70;92.70;;;;;;5073695;28;20048;-71
2021/09/18 12:15:32;;;;;;;2.10;1.00;;;19.80;91.90;;;;;;5074560;28;20045;-72
2021/09/18 12:17:58;;;;;;;2.03;0.85;;;19.90;92.50;;;;;;5073423;28;20511;-69
2021/09/18 12:20:24;;;;;;;4.53;1.55;;;19.90;92.50;;;;;;5074346;28;20036;-71
2021/09/18 12:22:50;;;;;;;1.98;1.00;;;19.90;92.90;;;;;;5074708;28;20086;-71
2021/09/18 12:25:16;;;;;;;7.72;1.25;;;20.00;93.80;;;;;;5073614;28;20501;-69
2021/09/18 12:27:41;;;;;;;2.65;0.90;;;20.10;93.80;;;;;;5073176;28;20062;-69
2021/09/18 12:30:10;;;;;;;1.67;0.80;;;20.20;94.00;;;;;;5073977;28;20048;-70
2021/09/18 12:32:37;;;;;;;1.35;0.90;;;20.20;93.50;;;;;;5074193;28;20036;-70
2021/09/18 12:35:07;;;;;;;2.25;0.90;;;20.30;92.70;;;;;;5074419;28;20106;-70
2021/09/18 12:37:36;;;;;;;3.03;1.08;;;20.30;92.40;;;;;;5074429;28;20044;-70
2021/09/18 12:40:14;;;;;;;3.13;1.17;;;20.30;92.70;;;;;;5073623;28;20474;-70
2021/09/18 12:42:40;;;;;;;1.60;0.85;;;20.20;93.00;;;;;;5072987;28;20055;-71
2021/09/18 12:45:23;;;;;;;1.27;0.80;;;20.10;94.30;;;;;;5073311;28;20036;-71
2021/09/18 12:47:49;;;;;;;1.08;0.70;;;20.10;91.80;;;;;;5073170;28;20044;-71
2021/09/18 12:50:17;;;;;;;1.35;0.60;;;20.00;92.90;;;;;;5072728;28;20400;-71